Shoreacres, Texas
Current Conditions -  °F | °C
As of 9:50 PM on Monday 22 Dec 2014 (Local Time) from KEFD Reporting Station
Scattered Clouds Scattered Clouds  
Wind Chill: 16°   Ceiling: Unl
Heat Index: 16°   Visibility: 8mi
Dew Point: 16°   Wind: 2mph
Humidity: 100%   Direction: 300°WNW
Pressure: 29.69"   Gusts: NA
Location:  29.6785°N, 95.0483°W
Report Text: KEFD 230350Z 30002KT 8SM SCT250 16/16 A2969
Loading
Personal Weather Stations






























Interactive Weather Map New forecast layout! Learn more

10-Day Weather Forecast

Advertisements
Track Severe Weather on mobile